createdAt,value
2024-03-24T00:00:05.794Z,997.32
2024-03-24T00:00:59.268Z,997.31
2024-03-24T00:02:00.480Z,997.32
2024-03-24T00:02:59.843Z,997.31
2024-03-24T00:04:00.387Z,997.28
2024-03-24T00:04:59.305Z,997.27
2024-03-24T00:05:59.222Z,997.25
2024-03-24T00:06:59.224Z,997.25
2024-03-24T00:07:59.215Z,997.24
2024-03-24T00:08:59.296Z,997.23
2024-03-24T00:09:59.251Z,997.21
2024-03-24T00:10:59.196Z,997.21
2024-03-24T00:11:59.190Z,997.19
2024-03-24T00:12:59.311Z,997.19
2024-03-24T00:13:59.227Z,997.16
2024-03-24T00:14:59.261Z,997.16
2024-03-24T00:15:59.286Z,997.14
2024-03-24T00:16:59.152Z,997.13
2024-03-24T00:17:59.091Z,997.12
2024-03-24T00:18:59.106Z,997.13
2024-03-24T00:19:59.061Z,997.13
2024-03-24T00:20:59.069Z,997.13
2024-03-24T00:21:59.048Z,997.13
2024-03-24T00:22:59.029Z,997.12
2024-03-24T00:23:59.058Z,997.11
2024-03-24T00:24:59.026Z,997.10
2024-03-24T00:25:59.007Z,997.08
2024-03-24T00:26:58.996Z,997.10
2024-03-24T00:27:59.066Z,997.10
2024-03-24T00:28:59.011Z,997.11
2024-03-24T00:29:58.960Z,997.11
2024-03-24T00:30:58.963Z,997.10
2024-03-24T00:31:58.962Z,997.09
2024-03-24T00:33:00.099Z,997.08
2024-03-24T00:33:58.932Z,997.07
2024-03-24T00:34:58.925Z,997.07
2024-03-24T00:35:58.909Z,997.05
2024-03-24T00:36:58.924Z,997.04
2024-03-24T00:37:58.904Z,997.03
2024-03-24T00:38:58.892Z,997.01
2024-03-24T00:39:58.882Z,997.01
2024-03-24T00:40:58.856Z,996.99
2024-03-24T00:41:58.892Z,996.97
2024-03-24T00:42:58.862Z,996.96
2024-03-24T00:43:58.852Z,996.95
2024-03-24T00:44:58.824Z,996.94
2024-03-24T00:45:58.808Z,996.92
2024-03-24T00:46:58.835Z,996.91
2024-03-24T00:47:58.790Z,996.91
2024-03-24T00:48:58.794Z,996.90
2024-03-24T00:49:58.779Z,996.90
2024-03-24T00:50:58.778Z,996.91
2024-03-24T00:51:58.778Z,996.90
2024-03-24T00:52:58.751Z,996.89
2024-03-24T00:53:58.734Z,996.88
2024-03-24T00:54:58.740Z,996.86
2024-03-24T00:55:58.731Z,996.86
2024-03-24T00:56:58.720Z,996.86
2024-03-24T00:57:58.690Z,996.86
2024-03-24T00:58:58.705Z,996.85
2024-03-24T00:59:58.674Z,996.85
2024-03-24T01:00:58.693Z,996.85
2024-03-24T01:01:58.675Z,996.84
2024-03-24T01:02:58.657Z,996.84
2024-03-24T01:03:58.648Z,996.83
2024-03-24T01:04:58.638Z,996.82
2024-03-24T01:05:58.638Z,996.81
2024-03-24T01:06:58.628Z,996.81
2024-03-24T01:07:58.620Z,996.80
2024-03-24T01:08:58.609Z,996.80
2024-03-24T01:09:58.631Z,996.80
2024-03-24T01:10:58.595Z,996.79
2024-03-24T01:11:58.559Z,996.78
2024-03-24T01:12:58.564Z,996.77
2024-03-24T01:13:58.553Z,996.77
2024-03-24T01:14:58.583Z,996.78
2024-03-24T01:15:58.527Z,996.77
2024-03-24T01:16:58.512Z,996.77
2024-03-24T01:17:58.505Z,996.76
2024-03-24T01:18:58.496Z,996.75
2024-03-24T01:19:58.518Z,996.75
2024-03-24T01:20:58.550Z,996.74
2024-03-24T01:21:58.469Z,996.74
2024-03-24T01:22:58.470Z,996.72
2024-03-24T01:23:58.509Z,996.69
2024-03-24T01:24:58.473Z,996.67
2024-03-24T01:25:58.424Z,996.65
2024-03-24T01:26:58.459Z,996.63
2024-03-24T01:27:58.435Z,996.63
2024-03-24T01:28:58.448Z,996.62
2024-03-24T01:29:58.413Z,996.61
2024-03-24T01:30:58.383Z,996.59
2024-03-24T01:31:58.405Z,996.57
2024-03-24T01:32:58.412Z,996.57
2024-03-24T01:33:58.420Z,996.56
2024-03-24T01:34:58.357Z,996.55
2024-03-24T01:35:58.358Z,996.54
2024-03-24T01:36:58.335Z,996.53
2024-03-24T01:37:58.370Z,996.52
2024-03-24T01:38:58.338Z,996.50
2024-03-24T01:39:58.298Z,996.48
2024-03-24T01:40:58.303Z,996.47
2024-03-24T01:41:58.280Z,996.48
2024-03-24T01:42:58.319Z,996.48
2024-03-24T01:43:58.245Z,996.47
2024-03-24T01:44:58.257Z,996.49
2024-03-24T01:45:58.240Z,996.48
2024-03-24T01:46:58.266Z,996.45
2024-03-24T01:47:58.243Z,996.46
2024-03-24T01:48:58.223Z,996.44
2024-03-24T01:49:58.195Z,996.44
2024-03-24T01:50:58.190Z,996.42
2024-03-24T01:51:58.202Z,996.41
2024-03-24T01:52:58.194Z,996.41
2024-03-24T01:53:58.168Z,996.38
2024-03-24T01:54:58.158Z,996.37
2024-03-24T01:55:58.140Z,996.35
2024-03-24T01:56:58.161Z,996.34
2024-03-24T01:57:58.133Z,996.32
2024-03-24T01:58:58.145Z,996.32
2024-03-24T01:59:58.118Z,996.31
2024-03-24T02:00:58.091Z,996.29
2024-03-24T02:01:58.113Z,996.28
2024-03-24T02:02:58.076Z,996.29
2024-03-24T02:03:58.068Z,996.28
2024-03-24T02:04:58.087Z,996.29
2024-03-24T02:05:58.073Z,996.27
2024-03-24T02:06:58.055Z,996.27
2024-03-24T02:07:58.019Z,996.24
2024-03-24T02:08:58.038Z,996.25
2024-03-24T02:09:58.019Z,996.24
2024-03-24T02:10:58.038Z,996.26
2024-03-24T02:11:57.993Z,996.23
2024-03-24T02:12:57.994Z,996.23
2024-03-24T02:13:57.974Z,996.24
2024-03-24T02:14:57.964Z,996.21
2024-03-24T02:15:57.983Z,996.24
2024-03-24T02:16:57.950Z,996.22
2024-03-24T02:18:00.485Z,996.22
2024-03-24T02:18:57.919Z,996.21
2024-03-24T02:19:57.942Z,996.17
2024-03-24T02:20:57.985Z,996.16
2024-03-24T02:21:57.908Z,996.14
2024-03-24T02:22:57.889Z,996.13
2024-03-24T02:23:57.878Z,996.14
2024-03-24T02:24:57.945Z,996.14
2024-03-24T02:25:57.866Z,996.15
2024-03-24T02:26:57.870Z,996.16
2024-03-24T02:27:57.858Z,996.16
2024-03-24T02:28:57.856Z,996.16
2024-03-24T02:29:57.877Z,996.10
2024-03-24T02:30:57.816Z,996.13
2024-03-24T02:31:57.816Z,996.09
2024-03-24T02:32:57.783Z,996.07
2024-03-24T02:33:57.814Z,996.08
2024-03-24T02:34:57.825Z,996.06
2024-03-24T02:35:57.771Z,996.03
2024-03-24T02:36:57.750Z,996.03
2024-03-24T02:37:57.742Z,996.03
2024-03-24T02:38:57.753Z,996.03
2024-03-24T02:39:57.735Z,996.00
2024-03-24T02:40:57.714Z,996.03
2024-03-24T02:41:57.707Z,996.02
2024-03-24T02:42:57.716Z,996.01
2024-03-24T02:43:57.703Z,995.99
2024-03-24T02:44:57.674Z,996.02
2024-03-24T02:45:57.711Z,995.99
2024-03-24T02:46:57.675Z,996.01
2024-03-24T02:47:57.698Z,995.99
2024-03-24T02:48:57.671Z,995.99
2024-03-24T02:49:57.672Z,995.94
2024-03-24T02:50:57.619Z,995.98
2024-03-24T02:51:57.613Z,995.96
2024-03-24T02:52:57.658Z,995.94
2024-03-24T02:53:57.610Z,995.94
2024-03-24T02:54:57.602Z,995.94
2024-03-24T02:55:57.576Z,995.90
2024-03-24T02:56:57.604Z,995.88
2024-03-24T02:57:57.574Z,995.89
2024-03-24T02:58:57.551Z,995.87
2024-03-24T02:59:57.551Z,995.86
2024-03-24T03:00:57.518Z,995.86
2024-03-24T03:01:57.549Z,995.86
2024-03-24T03:02:57.518Z,995.87
2024-03-24T03:03:57.486Z,995.86
2024-03-24T03:04:57.497Z,995.87
2024-03-24T03:05:57.473Z,995.86
2024-03-24T03:06:57.510Z,995.83
2024-03-24T03:07:57.451Z,995.83
2024-03-24T03:08:57.467Z,995.85
2024-03-24T03:09:57.464Z,995.86
2024-03-24T03:10:57.476Z,995.87
2024-03-24T03:11:57.476Z,995.87
2024-03-24T03:12:57.423Z,995.86
2024-03-24T03:13:57.405Z,995.87
2024-03-24T03:14:57.415Z,995.89
2024-03-24T03:15:57.409Z,995.88
2024-03-24T03:16:57.357Z,995.88
2024-03-24T03:17:57.363Z,995.86
2024-03-24T03:18:57.357Z,995.90
2024-03-24T03:19:57.360Z,995.87
2024-03-24T03:20:57.375Z,995.88
2024-03-24T03:21:57.317Z,995.90
2024-03-24T03:22:57.344Z,995.90
2024-03-24T03:23:57.329Z,995.88
2024-03-24T03:24:57.314Z,995.91
2024-03-24T03:25:57.321Z,995.88
2024-03-24T03:26:57.268Z,995.87
2024-03-24T03:27:57.271Z,995.87
2024-03-24T03:28:57.278Z,995.88
2024-03-24T03:29:57.282Z,995.87
2024-03-24T03:30:57.220Z,995.89
2024-03-24T03:31:57.223Z,995.85
2024-03-24T03:32:57.209Z,995.87
2024-03-24T03:33:57.226Z,995.89
2024-03-24T03:34:57.225Z,995.88
2024-03-24T03:35:57.221Z,995.87
2024-03-24T03:36:57.208Z,995.88
2024-03-24T03:37:57.162Z,995.88
2024-03-24T03:38:57.223Z,995.90
2024-03-24T03:39:57.192Z,995.91
2024-03-24T03:40:57.194Z,995.86
2024-03-24T03:41:57.198Z,995.86
2024-03-24T03:42:57.125Z,995.84
2024-03-24T03:43:57.202Z,995.84
2024-03-24T03:44:57.139Z,995.81
2024-03-24T03:45:57.106Z,995.81
2024-03-24T03:46:57.087Z,995.76
2024-03-24T03:47:57.075Z,995.77
2024-03-24T03:48:57.122Z,995.74
2024-03-24T03:49:57.073Z,995.77
2024-03-24T03:50:57.062Z,995.77
2024-03-24T03:51:57.075Z,995.77
2024-03-24T03:52:57.024Z,995.78
2024-03-24T03:53:57.059Z,995.76
2024-03-24T03:54:57.047Z,995.73
2024-03-24T03:55:57.001Z,995.73
2024-03-24T03:56:56.990Z,995.74
2024-03-24T03:57:56.999Z,995.73
2024-03-24T03:58:56.996Z,995.72
2024-03-24T03:59:56.971Z,995.74
2024-03-24T04:00:56.971Z,995.77
2024-03-24T04:01:56.964Z,995.76
2024-03-24T04:02:56.958Z,995.76
2024-03-24T04:03:56.932Z,995.76
2024-03-24T04:04:56.919Z,995.75
2024-03-24T04:05:56.911Z,995.72
2024-03-24T04:06:56.935Z,995.67
2024-03-24T04:07:56.901Z,995.67
2024-03-24T04:08:56.881Z,995.65
2024-03-24T04:09:56.882Z,995.67
2024-03-24T04:10:56.858Z,995.68
2024-03-24T04:11:56.856Z,995.69
2024-03-24T04:12:56.863Z,995.70
2024-03-24T04:13:56.823Z,995.72
2024-03-24T04:14:56.830Z,995.72
2024-03-24T04:15:56.824Z,995.70
2024-03-24T04:16:56.847Z,995.72
2024-03-24T04:17:56.783Z,995.71
2024-03-24T04:18:56.807Z,995.72
2024-03-24T04:19:56.763Z,995.70
2024-03-24T04:20:56.785Z,995.71
2024-03-24T04:21:56.777Z,995.70
2024-03-24T04:22:56.753Z,995.66
2024-03-24T04:23:56.674Z,995.65
2024-03-24T04:24:56.681Z,995.66
2024-03-24T04:25:56.671Z,995.64
2024-03-24T04:26:56.680Z,995.61
2024-03-24T04:27:56.644Z,995.63
2024-03-24T04:28:56.623Z,995.64
2024-03-24T04:29:56.659Z,995.62
2024-03-24T04:30:56.663Z,995.61
2024-03-24T04:31:56.638Z,995.61
2024-03-24T04:32:56.590Z,995.61
2024-03-24T04:33:56.600Z,995.62
2024-03-24T04:34:56.621Z,995.59
2024-03-24T04:35:56.618Z,995.58
2024-03-24T04:36:56.575Z,995.56
2024-03-24T04:37:56.548Z,995.57
2024-03-24T04:38:56.537Z,995.57
2024-03-24T04:39:56.561Z,995.55
2024-03-24T04:40:56.525Z,995.53
2024-03-24T04:41:56.522Z,995.53
2024-03-24T04:42:56.507Z,995.53
2024-03-24T04:43:56.506Z,995.53
2024-03-24T04:44:56.524Z,995.53
2024-03-24T04:45:56.479Z,995.50
2024-03-24T04:46:56.465Z,995.49
2024-03-24T04:47:56.449Z,995.47
2024-03-24T04:48:56.476Z,995.49
2024-03-24T04:49:56.451Z,995.49
2024-03-24T04:50:56.456Z,995.45
2024-03-24T04:51:56.420Z,995.47
2024-03-24T04:52:56.441Z,995.46
2024-03-24T04:53:56.418Z,995.45
2024-03-24T04:54:56.404Z,995.43
2024-03-24T04:55:56.408Z,995.41
2024-03-24T04:56:56.408Z,995.41
2024-03-24T04:57:56.364Z,995.40
2024-03-24T04:58:56.413Z,995.39
2024-03-24T04:59:56.355Z,995.39
2024-03-24T05:00:56.327Z,995.39
2024-03-24T05:01:56.324Z,995.38
2024-03-24T05:02:56.358Z,995.40
2024-03-24T05:03:56.319Z,995.39
2024-03-24T05:04:56.292Z,995.39
2024-03-24T05:05:56.276Z,995.37
2024-03-24T05:06:56.274Z,995.34
2024-03-24T05:07:56.276Z,995.33
2024-03-24T05:08:56.241Z,995.33
2024-03-24T05:09:56.250Z,995.33
2024-03-24T05:10:56.242Z,995.31
2024-03-24T05:11:56.228Z,995.28
2024-03-24T05:12:56.246Z,995.27
2024-03-24T05:13:56.228Z,995.27
2024-03-24T05:14:56.198Z,995.26
2024-03-24T05:15:56.208Z,995.23
2024-03-24T05:16:56.185Z,995.23
2024-03-24T05:17:56.182Z,995.22
2024-03-24T05:18:56.163Z,995.21
2024-03-24T05:19:56.172Z,995.19
2024-03-24T05:20:56.137Z,995.21
2024-03-24T05:21:56.247Z,995.17
2024-03-24T05:22:56.119Z,995.15
2024-03-24T05:23:56.135Z,995.16
2024-03-24T05:24:56.130Z,995.17
2024-03-24T05:25:56.097Z,995.16
2024-03-24T05:26:56.098Z,995.13
2024-03-24T05:27:56.128Z,995.14
2024-03-24T05:28:56.269Z,995.12
2024-03-24T05:29:56.059Z,995.12
2024-03-24T05:30:56.140Z,995.11
2024-03-24T05:31:56.062Z,995.13
2024-03-24T05:32:56.028Z,995.12
2024-03-24T05:33:56.027Z,995.11
2024-03-24T05:34:56.008Z,995.11
2024-03-24T05:35:56.011Z,995.11
2024-03-24T05:36:55.997Z,995.12
2024-03-24T05:37:55.987Z,995.11
2024-03-24T05:38:55.958Z,995.12
2024-03-24T05:39:55.971Z,995.13
2024-03-24T05:40:55.980Z,995.12
2024-03-24T05:41:55.944Z,995.09
2024-03-24T05:42:55.946Z,995.09
2024-03-24T05:43:55.956Z,995.10
2024-03-24T05:44:55.944Z,995.11
2024-03-24T05:45:55.948Z,995.12
2024-03-24T05:46:55.898Z,995.14
2024-03-24T05:47:55.891Z,995.13
2024-03-24T05:48:55.888Z,995.14
2024-03-24T05:49:55.905Z,995.18
2024-03-24T05:50:55.922Z,995.16
2024-03-24T05:51:55.884Z,995.13
2024-03-24T05:52:55.878Z,995.15
2024-03-24T05:53:55.823Z,995.17
2024-03-24T05:54:55.838Z,995.13
2024-03-24T05:55:55.831Z,995.11
2024-03-24T05:56:55.802Z,995.12
2024-03-24T05:57:55.837Z,995.11
2024-03-24T05:58:55.812Z,995.11
2024-03-24T05:59:55.826Z,995.11
2024-03-24T06:00:55.774Z,995.12
2024-03-24T06:01:55.789Z,995.11
2024-03-24T06:02:55.756Z,995.12
2024-03-24T06:03:55.777Z,995.09
2024-03-24T06:04:55.723Z,995.09
2024-03-24T06:05:55.716Z,995.07
2024-03-24T06:06:55.711Z,995.07
2024-03-24T06:07:55.716Z,995.08
2024-03-24T06:08:55.728Z,995.09
2024-03-24T06:09:55.669Z,995.04
2024-03-24T06:10:55.654Z,995.07
2024-03-24T06:11:55.644Z,995.03
2024-03-24T06:12:55.659Z,995.07
2024-03-24T06:13:55.672Z,995.06
2024-03-24T06:14:55.666Z,995.12
2024-03-24T06:15:55.626Z,995.10
2024-03-24T06:16:55.640Z,995.08
2024-03-24T06:17:55.662Z,995.10
2024-03-24T06:18:55.585Z,995.09
2024-03-24T06:19:55.587Z,995.10
2024-03-24T06:20:55.565Z,995.11
2024-03-24T06:21:55.570Z,995.08
2024-03-24T06:22:55.568Z,995.05
2024-03-24T06:23:55.544Z,995.07
2024-03-24T06:24:55.526Z,995.04
2024-03-24T06:25:55.536Z,995.03
2024-03-24T06:26:55.531Z,995.02
2024-03-24T06:27:55.512Z,994.98
2024-03-24T06:28:55.490Z,995.00
2024-03-24T06:29:55.476Z,994.97
2024-03-24T06:30:55.476Z,994.98
2024-03-24T06:31:55.529Z,994.96
2024-03-24T06:32:55.444Z,994.93
2024-03-24T06:33:55.468Z,994.93
2024-03-24T06:34:55.452Z,994.96
2024-03-24T06:35:55.466Z,994.96
2024-03-24T06:36:55.479Z,994.92
2024-03-24T06:37:55.408Z,994.96
2024-03-24T06:38:55.426Z,994.95
2024-03-24T06:39:55.429Z,994.92
2024-03-24T06:40:55.398Z,994.96
2024-03-24T06:41:55.420Z,994.94
2024-03-24T06:42:55.361Z,994.94
2024-03-24T06:43:55.379Z,994.96
2024-03-24T06:44:55.370Z,994.93
2024-03-24T06:45:55.377Z,994.90
2024-03-24T06:46:55.359Z,994.90
2024-03-24T06:47:55.316Z,994.91
2024-03-24T06:48:55.319Z,994.91
2024-03-24T06:49:55.291Z,994.91
2024-03-24T06:50:55.301Z,994.92
2024-03-24T06:51:55.278Z,994.95
2024-03-24T06:52:55.288Z,994.93
2024-03-24T06:53:55.258Z,994.93
2024-03-24T06:54:55.291Z,994.90
2024-03-24T06:55:55.258Z,995.00
2024-03-24T06:56:55.225Z,994.92
2024-03-24T06:57:55.270Z,994.97
2024-03-24T06:58:55.207Z,994.96
2024-03-24T06:59:55.228Z,994.96
2024-03-24T07:00:55.213Z,994.93
2024-03-24T07:01:55.194Z,994.95
2024-03-24T07:02:55.177Z,994.92
2024-03-24T07:03:55.180Z,994.90
2024-03-24T07:04:55.189Z,994.93
2024-03-24T07:05:55.167Z,994.85
2024-03-24T07:06:55.127Z,994.89
2024-03-24T07:07:55.131Z,994.91
2024-03-24T07:08:55.137Z,994.86
2024-03-24T07:09:55.128Z,994.87
2024-03-24T07:10:55.094Z,994.84
2024-03-24T07:11:55.082Z,994.88
2024-03-24T07:12:55.070Z,994.87
2024-03-24T07:13:55.111Z,994.81
2024-03-24T07:14:55.064Z,994.85
2024-03-24T07:15:55.045Z,994.87
2024-03-24T07:16:55.101Z,994.82
2024-03-24T07:17:55.022Z,994.86
2024-03-24T07:18:55.039Z,994.83
2024-03-24T07:19:55.008Z,994.78
2024-03-24T07:20:55.045Z,994.84
2024-03-24T07:21:55.037Z,994.75
2024-03-24T07:22:55.001Z,994.84
2024-03-24T07:23:55.001Z,994.83
2024-03-24T07:24:54.978Z,994.82
2024-03-24T07:25:54.958Z,994.84
2024-03-24T07:26:54.966Z,994.84
2024-03-24T07:27:54.965Z,994.82
2024-03-24T07:28:54.933Z,994.82
2024-03-24T07:29:54.936Z,994.87
2024-03-24T07:32:32.363Z,994.79
2024-03-24T07:33:34.316Z,994.81
2024-03-24T07:34:33.333Z,994.80
2024-03-24T07:35:33.273Z,994.79
2024-03-24T07:36:33.274Z,994.72
2024-03-24T07:37:33.321Z,994.73
2024-03-24T07:38:33.243Z,994.76
2024-03-24T07:39:33.231Z,994.71
2024-03-24T07:40:33.235Z,994.74
2024-03-24T07:41:33.254Z,994.66
2024-03-24T07:42:33.232Z,994.69
2024-03-24T07:43:33.212Z,994.66
2024-03-24T07:44:33.191Z,994.70
2024-03-24T07:45:33.266Z,994.66
2024-03-24T07:46:33.203Z,994.66
2024-03-24T07:47:33.167Z,994.66
2024-03-24T07:48:33.165Z,994.67
2024-03-24T07:49:33.191Z,994.64
2024-03-24T07:50:33.283Z,994.61
2024-03-24T07:51:33.179Z,994.65
2024-03-24T07:52:33.143Z,994.61
2024-03-24T07:53:33.097Z,994.67
2024-03-24T07:54:33.110Z,994.60
2024-03-24T07:55:33.121Z,994.66
2024-03-24T07:56:33.141Z,994.63
2024-03-24T07:57:33.075Z,994.65
2024-03-24T07:58:33.053Z,994.71
2024-03-24T07:59:33.060Z,994.62
2024-03-24T08:00:33.118Z,994.63
2024-03-24T08:01:33.037Z,994.70
2024-03-24T08:02:33.032Z,994.63
2024-03-24T08:03:33.029Z,994.61
2024-03-24T08:04:33.009Z,994.60
2024-03-24T08:05:34.699Z,994.65
2024-03-24T08:06:32.989Z,994.68
2024-03-24T08:07:32.981Z,994.72
2024-03-24T08:08:32.960Z,994.72
2024-03-24T08:09:33.000Z,994.66
2024-03-24T08:10:33.001Z,994.64
2024-03-24T08:11:32.974Z,994.64
2024-03-24T08:12:32.930Z,994.62
2024-03-24T08:13:32.931Z,994.65
2024-03-24T08:14:32.949Z,994.59
2024-03-24T08:15:32.958Z,994.59
2024-03-24T08:16:32.910Z,994.63
2024-03-24T08:17:32.906Z,994.67
2024-03-24T08:18:32.897Z,994.63
2024-03-24T08:19:32.897Z,994.62
2024-03-24T08:20:32.860Z,994.62
2024-03-24T08:21:32.867Z,994.58
2024-03-24T08:22:32.836Z,994.56
2024-03-24T08:23:32.840Z,994.60
2024-03-24T08:24:32.902Z,994.64
2024-03-24T08:25:32.837Z,994.60
2024-03-24T08:26:32.892Z,994.58
2024-03-24T08:27:32.812Z,994.57
2024-03-24T08:28:32.822Z,994.57
2024-03-24T08:29:32.804Z,994.57
2024-03-24T08:30:32.798Z,994.54
2024-03-24T08:31:32.766Z,994.49
2024-03-24T08:32:32.870Z,994.48
2024-03-24T08:33:32.769Z,994.50
2024-03-24T08:34:32.801Z,994.46
2024-03-24T08:35:32.723Z,994.46
2024-03-24T08:36:32.743Z,994.51
2024-03-24T08:37:32.726Z,994.47
2024-03-24T08:38:32.726Z,994.52
2024-03-24T08:39:32.721Z,994.46
2024-03-24T08:40:32.738Z,994.44
2024-03-24T08:41:32.696Z,994.45
2024-03-24T08:42:32.680Z,994.47
2024-03-24T08:43:32.690Z,994.42
2024-03-24T08:44:32.648Z,994.40
2024-03-24T08:45:32.721Z,994.49
2024-03-24T08:46:32.639Z,994.38
2024-03-24T08:47:32.710Z,994.39
2024-03-24T08:48:38.422Z,994.35
2024-03-24T08:49:34.767Z,994.34
2024-03-24T08:50:32.631Z,994.36
2024-03-24T08:51:32.591Z,994.37
2024-03-24T08:52:35.304Z,994.37
2024-03-24T08:53:32.666Z,994.38
2024-03-24T08:54:33.490Z,994.41
2024-03-24T08:55:32.571Z,994.35
2024-03-24T08:56:32.588Z,994.35
2024-03-24T08:57:32.553Z,994.35
2024-03-24T08:58:32.519Z,994.37
2024-03-24T08:59:33.366Z,994.31
2024-03-24T09:00:32.500Z,994.37
2024-03-24T09:01:32.512Z,994.31
2024-03-24T09:02:32.503Z,994.42
2024-03-24T09:03:32.450Z,994.31
2024-03-24T09:04:32.444Z,994.30
2024-03-24T09:05:32.440Z,994.24
2024-03-24T09:06:32.461Z,994.31
2024-03-24T09:07:32.528Z,994.32
2024-03-24T09:08:32.458Z,994.28
2024-03-24T09:09:32.418Z,994.24
2024-03-24T09:10:32.481Z,994.22
2024-03-24T09:11:32.467Z,994.29
2024-03-24T09:12:32.434Z,994.32
2024-03-24T09:13:32.394Z,994.35
2024-03-24T09:14:32.358Z,994.31
2024-03-24T09:15:32.378Z,994.33
2024-03-24T09:16:34.933Z,994.38
2024-03-24T09:17:32.331Z,994.31
2024-03-24T09:18:32.315Z,994.32
2024-03-24T09:19:32.327Z,994.28
2024-03-24T09:20:32.366Z,994.29
2024-03-24T09:21:32.307Z,994.26
2024-03-24T09:22:32.296Z,994.27
2024-03-24T09:23:32.282Z,994.28
2024-03-24T09:24:32.290Z,994.26
2024-03-24T09:25:32.312Z,994.26
2024-03-24T09:26:32.241Z,994.26
2024-03-24T09:27:32.248Z,994.30
2024-03-24T09:28:32.237Z,994.27
2024-03-24T09:29:32.232Z,994.27
2024-03-24T09:30:32.233Z,994.22
2024-03-24T09:31:32.225Z,994.17
2024-03-24T09:32:32.204Z,994.21
2024-03-24T09:33:32.212Z,994.23
2024-03-24T09:34:32.217Z,994.15
2024-03-24T09:35:32.178Z,994.15
2024-03-24T09:36:32.196Z,994.16
2024-03-24T09:37:32.271Z,994.18
2024-03-24T09:38:33.015Z,994.16
2024-03-24T09:39:32.153Z,994.20
2024-03-24T09:40:32.119Z,994.19
2024-03-24T09:41:32.149Z,994.17
2024-03-24T09:42:32.115Z,994.13
2024-03-24T09:43:32.119Z,994.15
2024-03-24T09:44:32.086Z,994.14
2024-03-24T09:45:32.092Z,994.18
2024-03-24T09:46:32.100Z,994.13
2024-03-24T09:47:32.093Z,994.18
2024-03-24T09:48:32.074Z,994.06
2024-03-24T09:49:32.039Z,994.07
2024-03-24T09:50:32.072Z,994.07
2024-03-24T09:51:32.025Z,994.01
2024-03-24T09:52:32.030Z,994.04
2024-03-24T09:53:32.019Z,994.02
2024-03-24T09:54:32.031Z,994.05
2024-03-24T09:55:31.976Z,994.04
2024-03-24T09:56:31.991Z,994.01
2024-03-24T09:57:31.978Z,993.97
2024-03-24T09:58:31.952Z,993.99
2024-03-24T09:59:31.965Z,993.98
2024-03-24T10:00:31.936Z,993.98
2024-03-24T10:01:31.935Z,993.96
2024-03-24T10:02:31.938Z,993.98
2024-03-24T10:03:31.918Z,993.91
2024-03-24T10:04:32.004Z,994.03
2024-03-24T10:05:31.882Z,993.99
2024-03-24T10:06:31.885Z,993.98
2024-03-24T10:07:31.892Z,993.99
2024-03-24T10:08:31.857Z,993.87
2024-03-24T10:09:31.879Z,993.91
2024-03-24T10:10:31.845Z,993.85
2024-03-24T10:11:31.847Z,993.96
2024-03-24T10:12:31.838Z,993.95
2024-03-24T10:13:31.810Z,994.01
2024-03-24T10:14:31.818Z,993.96
2024-03-24T10:15:31.784Z,993.97
2024-03-24T10:16:31.833Z,993.89
2024-03-24T10:17:31.776Z,994.04
2024-03-24T10:18:31.776Z,994.02
2024-03-24T10:19:31.787Z,993.96
2024-03-24T10:20:31.804Z,994.05
2024-03-24T10:21:31.753Z,993.95
2024-03-24T10:22:31.736Z,993.95
2024-03-24T10:23:31.747Z,993.89
2024-03-24T10:24:31.722Z,993.95
2024-03-24T10:25:31.746Z,993.87
2024-03-24T10:26:31.689Z,993.89
2024-03-24T10:27:31.675Z,993.86
2024-03-24T10:28:31.678Z,993.91
2024-03-24T10:29:31.668Z,993.88
2024-03-24T10:30:31.686Z,993.86
2024-03-24T10:31:31.668Z,993.89
2024-03-24T10:32:31.659Z,993.90
2024-03-24T10:33:31.628Z,993.91
2024-03-24T10:34:31.632Z,993.88
2024-03-24T10:35:31.603Z,993.79
2024-03-24T10:36:31.603Z,993.80
2024-03-24T10:37:31.601Z,993.87
2024-03-24T10:38:31.579Z,993.85
2024-03-24T10:39:31.655Z,993.77
2024-03-24T10:40:31.573Z,993.72
2024-03-24T10:41:31.541Z,993.70
2024-03-24T10:42:31.536Z,993.64
2024-03-24T10:43:31.567Z,993.56
2024-03-24T10:44:31.551Z,993.63
2024-03-24T10:45:31.537Z,993.60
2024-03-24T10:46:31.525Z,993.57
2024-03-24T10:47:31.517Z,993.60
2024-03-24T10:48:31.510Z,993.53
2024-03-24T10:49:31.469Z,993.54
2024-03-24T10:50:31.500Z,993.49
2024-03-24T10:51:31.497Z,993.56
2024-03-24T10:52:31.489Z,993.46
2024-03-24T10:53:31.491Z,993.49
2024-03-24T10:54:31.432Z,993.52
2024-03-24T10:55:31.458Z,993.50
2024-03-24T10:56:31.448Z,993.61
2024-03-24T10:57:31.431Z,993.53
2024-03-24T10:58:31.437Z,993.50
2024-03-24T10:59:31.418Z,993.49
2024-03-24T11:00:31.398Z,993.43
2024-03-24T11:01:31.389Z,993.43
2024-03-24T11:02:31.379Z,993.53
2024-03-24T11:03:31.365Z,993.48
2024-03-24T11:04:31.344Z,993.49
2024-03-24T11:05:31.315Z,993.44
2024-03-24T11:06:31.353Z,993.46
2024-03-24T11:07:31.357Z,993.43
2024-03-24T11:08:31.325Z,993.41
2024-03-24T11:09:31.373Z,993.40
2024-03-24T11:10:31.360Z,993.42
2024-03-24T11:11:31.317Z,993.36
2024-03-24T11:12:31.366Z,993.38
2024-03-24T11:13:31.379Z,993.39
2024-03-24T11:14:31.282Z,993.41
2024-03-24T11:15:31.289Z,993.41
2024-03-24T11:16:31.364Z,993.44
2024-03-24T11:17:31.329Z,993.46
2024-03-24T11:18:31.323Z,993.39
2024-03-24T11:19:31.390Z,993.41
2024-03-24T11:20:31.215Z,993.39
2024-03-24T11:21:31.342Z,993.39
2024-03-24T11:22:31.200Z,993.46
2024-03-24T11:23:31.170Z,993.48
2024-03-24T11:24:33.027Z,993.58
2024-03-24T11:25:31.251Z,993.56
2024-03-24T11:26:31.304Z,993.49
2024-03-24T11:27:31.258Z,993.56
2024-03-24T11:28:31.138Z,993.62
2024-03-24T11:29:31.111Z,993.67
2024-03-24T11:30:31.127Z,993.56
2024-03-24T11:31:31.134Z,993.59
2024-03-24T11:32:31.073Z,993.60
2024-03-24T11:33:31.062Z,993.52
2024-03-24T11:34:31.112Z,993.49
2024-03-24T11:35:31.080Z,993.51
2024-03-24T11:36:31.031Z,993.58
2024-03-24T11:37:31.069Z,993.55
2024-03-24T11:38:31.024Z,993.53
2024-03-24T11:39:31.028Z,993.46
2024-03-24T11:40:31.061Z,993.47
2024-03-24T11:41:31.019Z,993.48
2024-03-24T11:42:31.017Z,993.44
2024-03-24T11:43:30.998Z,993.42
2024-03-24T11:44:30.984Z,993.47
2024-03-24T11:45:30.995Z,993.45
2024-03-24T11:46:31.000Z,993.48
2024-03-24T11:47:30.951Z,993.50
2024-03-24T11:48:30.942Z,993.54
2024-03-24T11:49:31.000Z,993.58
2024-03-24T11:50:30.915Z,993.46
2024-03-24T11:51:30.915Z,993.54
2024-03-24T11:52:30.922Z,993.58
2024-03-24T11:53:30.903Z,993.59
2024-03-24T11:54:30.969Z,993.46
2024-03-24T11:55:30.943Z,993.44
2024-03-24T11:56:30.890Z,993.52
2024-03-24T11:57:30.858Z,993.44
2024-03-24T11:58:30.913Z,993.57
2024-03-24T11:59:30.835Z,993.58
2024-03-24T12:00:30.838Z,993.42
2024-03-24T12:01:30.836Z,993.48
2024-03-24T12:02:30.799Z,993.48
2024-03-24T12:03:30.907Z,993.54
2024-03-24T12:04:30.818Z,993.46
2024-03-24T12:05:30.792Z,993.49
2024-03-24T12:06:30.749Z,993.55
2024-03-24T12:07:30.807Z,993.46
2024-03-24T12:08:30.791Z,993.57
2024-03-24T12:09:30.730Z,993.57
2024-03-24T12:10:30.807Z,993.54
2024-03-24T12:11:30.712Z,993.57
2024-03-24T12:12:30.733Z,993.47
2024-03-24T12:13:30.743Z,993.59
2024-03-24T12:14:30.688Z,993.52
2024-03-24T12:15:30.695Z,993.47
2024-03-24T12:16:30.708Z,993.52
2024-03-24T12:17:30.697Z,993.50
2024-03-24T12:18:30.666Z,993.53
2024-03-24T12:19:30.670Z,993.47
2024-03-24T12:20:30.648Z,993.45
2024-03-24T12:21:30.659Z,993.54
2024-03-24T12:22:30.633Z,993.42
2024-03-24T12:23:30.619Z,993.48
2024-03-24T12:24:30.591Z,993.47
2024-03-24T12:25:30.629Z,993.47
2024-03-24T12:26:30.596Z,993.38
2024-03-24T12:27:30.570Z,993.38
2024-03-24T12:28:30.608Z,993.38
2024-03-24T12:29:30.586Z,993.43